Kurgan-Tyube, Tajikistan

5:17 PM TJT on July 14, 2014 (GMT +0500)
Dushanbe (UTDD) Elev 2635 ft | 38.55 °N, 68.78 °E | Change Station

Current weather conditions updated 17 minutes ago

Clear
Clear
95 °F
Feels Like 95 °F
N
9
Wind Variable Wind from WNW

Tomorrow is forecast to be Warmer than today.

Today
High -- | Low -- °F
--% Chance of Precip.
Yesterday
High -- | Low -- °F
Precip. -- in
5:13 AM 7:47 PM
Waning Gibbous, 94% visible
Pressure 29.71 in
Visibility 6.2 miles
Clouds Clear
Dew Point 43 °F
Humidity 16%
Rainfall 0.00 in
Snow Depth Not available.
UV 3 out of 12
Pollen Not available.
Air Quality Not available.
Flu Activity Not available.
METAR UTDD 141200Z 29004MPS 240V330 9999 SKC 35/06 Q1006 09CLRD70 NOSIG RMK QFE687/0916

More Conditions Fewer Conditions

Pressure 29.71 in
Visibility 6.2 miles
Clouds Clear
Dew Point 43 °F
Humidity 16%
Rainfall 0.00 in
Snow Depth Not available.
UV 3 out of 12
Pollen Not available.
Air Quality Not available.
Flu Activity Not available.
METAR UTDD 141200Z 29004MPS 240V330 9999 SKC 35/06 Q1006 09CLRD70 NOSIG RMK QFE687/0916

More Conditions Fewer Conditions

10-Day Weather Forecast

Almanac

Astronomy

Jul. 14, 2014 Rise Set
Actual Time 5:13 AM TJT 7:47 PM TJT
Civil Twilight 4:43 AM TJT 8:17 PM TJT
Nautical Twilight 4:05 AM TJT 8:55 PM TJT
Astronomical Twilight 3:23 AM TJT 9:37 PM TJT
Moon 9:02 PM TJT 7:21 AM TJT
Length of Visible Light 15h 34m
Length of Day
14h 33m
Tomorrow will be 1m 12s shorter.
Waning Gibbous, 94% of the Moon is Illuminated
Today
Waning Gibbous
Jul 18
Last Quarter
Jul 26
New
Aug 3
First Quarter
Aug 10
Full

Yesterday's Extremes

Country Highs Country Lows

Community

WunderPhotos

Upload Photos

1,733,620 photos uploaded!

Nearby

Snow Depth

Not available.

Earthquake Activity

City Distance Mag. Time & Date
No recent earthquake activity has been reported nearby.
Minimum magnitude displayed is 2.5.

Coastal Water Temperatures

Place Temperature
No Stations Reporting

Nearby Weather Stations

There are no personal weather stations in this area.